createdAt,value
2017-03-04T00:01:06.858Z,18.93
2017-03-04T00:02:16.836Z,18.83
2017-03-04T00:03:27.210Z,18.83
2017-03-04T00:04:37.567Z,18.83
2017-03-04T00:05:48.320Z,18.83
2017-03-04T00:06:59.318Z,18.93
2017-03-04T00:08:08.922Z,18.93
2017-03-04T00:09:19.280Z,18.83
2017-03-04T00:10:29.242Z,18.63
2017-03-04T00:11:39.979Z,19.02
2017-03-04T00:12:50.989Z,18.73
2017-03-04T00:14:01.722Z,18.93
2017-03-04T00:15:12.516Z,19.02
2017-03-04T00:16:22.065Z,18.83
2017-03-04T00:17:32.819Z,18.83
2017-03-04T00:18:43.453Z,18.83
2017-03-04T00:19:54.196Z,19.02
2017-03-04T00:21:04.552Z,19.02
2017-03-04T00:22:15.340Z,18.93
2017-03-04T00:23:25.695Z,19.21
2017-03-04T00:24:36.734Z,19.02
2017-03-04T00:25:47.533Z,18.93
2017-03-04T00:26:58.285Z,18.93
2017-03-04T00:28:09.044Z,19.02
2017-03-04T00:29:19.399Z,18.93
2017-03-04T00:30:30.388Z,19.02
2017-03-04T00:31:40.362Z,18.93
2017-03-04T00:32:50.714Z,18.83
2017-03-04T00:34:01.094Z,19.02
2017-03-04T00:35:11.897Z,19.13
2017-03-04T00:36:22.903Z,19.12
2017-03-04T00:37:33.272Z,18.83
2017-03-04T00:38:42.903Z,19.02
2017-03-04T00:39:53.267Z,18.93
2017-03-04T00:41:03.636Z,19.02
2017-03-04T00:42:14.644Z,19.12
2017-03-04T00:43:25.396Z,19.02
2017-03-04T00:44:35.758Z,19.02
2017-03-04T00:45:46.532Z,18.93
2017-03-04T00:46:56.893Z,18.83
2017-03-04T00:48:07.161Z,18.93
2017-03-04T00:49:17.517Z,18.83
2017-03-04T00:50:27.866Z,18.83
2017-03-04T00:51:37.838Z,18.93
2017-03-04T00:52:48.209Z,18.93
2017-03-04T00:53:58.480Z,19.12
2017-03-04T00:55:08.945Z,19.02
2017-03-04T00:56:19.719Z,18.83
2017-03-04T00:57:30.459Z,18.83
2017-03-04T00:58:41.073Z,18.93
2017-03-04T00:59:51.274Z,19.12
2017-03-04T01:01:01.226Z,19.12
2017-03-04T01:02:12.010Z,19.12
2017-03-04T01:03:22.368Z,18.93
2017-03-04T01:04:33.121Z,18.93
2017-03-04T01:05:43.722Z,19.12
2017-03-04T01:06:54.074Z,19.12
2017-03-04T01:08:04.448Z,18.93
2017-03-04T01:09:14.026Z,18.93
2017-03-04T01:10:24.413Z,19.02
2017-03-04T01:11:35.485Z,19.21
2017-03-04T01:12:46.221Z,19.12
2017-03-04T01:13:56.224Z,18.93
2017-03-04T01:15:06.570Z,19.12
2017-03-04T01:16:16.973Z,19.02
2017-03-04T01:17:27.974Z,19.12
2017-03-04T01:18:37.969Z,19.21
2017-03-04T01:19:48.721Z,19.02
2017-03-04T01:20:59.070Z,19.21
2017-03-04T01:22:09.815Z,19.12
2017-03-04T01:23:20.022Z,19.02
2017-03-04T01:24:29.972Z,19.12
2017-03-04T01:25:40.747Z,18.93
2017-03-04T01:26:51.491Z,19.21
2017-03-04T01:28:02.263Z,18.93
2017-03-04T01:29:12.461Z,19.12
2017-03-04T01:30:22.438Z,19.12
2017-03-04T01:31:32.787Z,19.12
2017-03-04T01:32:43.530Z,19.02
2017-03-04T01:33:54.285Z,18.93
2017-03-04T01:35:05.299Z,19.12
2017-03-04T01:36:16.042Z,19.12
2017-03-04T01:37:26.390Z,19.12
2017-03-04T01:38:37.145Z,19.31
2017-03-04T01:39:47.920Z,19.12
2017-03-04T01:40:58.919Z,19.31
2017-03-04T01:42:09.667Z,19.12
2017-03-04T01:43:20.026Z,19.31
2017-03-04T01:44:30.778Z,19.12
2017-03-04T01:45:41.139Z,19.12
2017-03-04T01:46:51.423Z,19.02
2017-03-04T01:48:02.196Z,19.21
2017-03-04T01:49:12.550Z,19.21
2017-03-04T01:50:22.899Z,19.12
2017-03-04T01:51:33.245Z,19.02
2017-03-04T01:52:44.272Z,18.93
2017-03-04T01:53:55.005Z,19.21
2017-03-04T01:55:05.453Z,19.02
2017-03-04T01:56:15.795Z,19.21
2017-03-04T01:57:26.550Z,19.12
2017-03-04T01:58:37.165Z,19.02
2017-03-04T01:59:47.533Z,19.12
2017-03-04T02:00:58.294Z,19.31
2017-03-04T02:02:08.224Z,19.02
2017-03-04T02:03:18.288Z,19.31
2017-03-04T02:04:28.937Z,19.12
2017-03-04T02:05:39.695Z,19.12
2017-03-04T02:06:49.676Z,19.21
2017-03-04T02:08:00.072Z,19.12
2017-03-04T02:09:10.425Z,19.21
2017-03-04T02:10:20.640Z,19.31
2017-03-04T02:11:30.182Z,19.21
2017-03-04T02:12:40.931Z,19.21
2017-03-04T02:13:51.673Z,19.21
2017-03-04T02:15:02.048Z,19.21
2017-03-04T02:16:13.094Z,19.21
2017-03-04T02:17:23.448Z,19.12
2017-03-04T02:18:34.253Z,19.21
2017-03-04T02:19:44.601Z,19.21
2017-03-04T02:20:55.350Z,19.31
2017-03-04T02:22:06.346Z,19.21
2017-03-04T02:23:16.703Z,19.12
2017-03-04T02:24:27.449Z,19.31
2017-03-04T02:25:37.426Z,19.31
2017-03-04T02:26:47.894Z,19.12
2017-03-04T02:27:58.965Z,19.21
2017-03-04T02:29:09.745Z,19.21
2017-03-04T02:30:20.508Z,19.31
2017-03-04T02:31:30.465Z,19.12
2017-03-04T02:32:41.209Z,19.21
2017-03-04T02:33:52.226Z,18.83
2017-03-04T02:35:02.579Z,18.93
2017-03-04T02:36:12.517Z,19.31
2017-03-04T02:37:22.499Z,19.31
2017-03-04T02:38:31.666Z,19.12
2017-03-04T02:39:42.277Z,19.21
2017-03-04T02:40:52.646Z,19.4
2017-03-04T02:42:03.043Z,19.21
2017-03-04T02:43:13.813Z,19.12
2017-03-04T02:44:24.168Z,19.21
2017-03-04T02:45:35.205Z,19.5
2017-03-04T02:46:45.554Z,19.02
2017-03-04T02:47:55.900Z,19.21
2017-03-04T02:49:06.649Z,19.21
2017-03-04T02:50:17.401Z,19.21
2017-03-04T02:51:27.637Z,19.31
2017-03-04T02:52:37.592Z,19.12
2017-03-04T02:53:47.963Z,19.31
2017-03-04T02:54:58.353Z,19.31
2017-03-04T02:56:08.737Z,19.21
2017-03-04T02:57:19.346Z,19.02
2017-03-04T02:58:30.117Z,19.12
2017-03-04T02:59:40.076Z,19.02
2017-03-04T03:00:50.844Z,19.12
2017-03-04T03:02:01.622Z,18.93
2017-03-04T03:03:12.258Z,18.93
2017-03-04T03:04:22.473Z,19.6
2017-03-04T03:05:32.825Z,19.12
2017-03-04T03:06:43.622Z,19.5
2017-03-04T03:07:53.997Z,19.02
2017-03-04T03:09:03.830Z,19.21
2017-03-04T03:10:14.175Z,19.21
2017-03-04T03:11:24.956Z,19.6
2017-03-04T03:12:34.953Z,19.21
2017-03-04T03:13:45.318Z,19.12
2017-03-04T03:14:55.932Z,19.21
2017-03-04T03:16:06.674Z,19.5
2017-03-04T03:17:17.436Z,19.21
2017-03-04T03:18:28.178Z,19.4
2017-03-04T03:19:38.182Z,19.21
2017-03-04T03:20:49.183Z,19.5
2017-03-04T03:21:59.539Z,19.5
2017-03-04T03:23:10.305Z,19.21
2017-03-04T03:24:21.055Z,19.21
2017-03-04T03:25:31.024Z,19.12
2017-03-04T03:26:40.832Z,19.21
2017-03-04T03:27:51.200Z,19.12
2017-03-04T03:29:01.955Z,19.21
2017-03-04T03:30:12.307Z,19.21
2017-03-04T03:31:23.037Z,19.21
2017-03-04T03:32:34.090Z,19.21
2017-03-04T03:33:44.838Z,19.12
2017-03-04T03:34:55.693Z,19.12
2017-03-04T03:36:05.638Z,19.12
2017-03-04T03:37:16.013Z,19.5
2017-03-04T03:38:26.241Z,19.4
2017-03-04T03:39:36.989Z,19.21
2017-03-04T03:40:47.363Z,19.31
2017-03-04T03:41:58.137Z,19.5
2017-03-04T03:43:08.909Z,19.21
2017-03-04T03:44:19.903Z,19.4
2017-03-04T03:45:30.255Z,19.4
2017-03-04T03:46:41.039Z,19.31
2017-03-04T03:47:51.007Z,19.31
2017-03-04T03:49:01.764Z,19.31
2017-03-04T03:50:12.829Z,19.21
2017-03-04T03:51:23.194Z,19.4
2017-03-04T03:52:33.162Z,19.4
2017-03-04T03:53:43.514Z,19.4
2017-03-04T03:54:53.892Z,19.21
2017-03-04T03:56:04.555Z,19.4
2017-03-04T03:57:15.332Z,19.4
2017-03-04T03:58:26.078Z,19.31
2017-03-04T03:59:36.823Z,19.5
2017-03-04T04:00:47.197Z,19.31
2017-03-04T04:01:57.408Z,19.4
2017-03-04T04:03:08.160Z,19.31
2017-03-04T04:04:18.515Z,19.31
2017-03-04T04:05:28.880Z,19.31
2017-03-04T04:06:39.635Z,19.4
2017-03-04T04:07:49.904Z,19.31
2017-03-04T04:09:00.307Z,19.31
2017-03-04T04:10:10.248Z,19.31
2017-03-04T04:11:20.980Z,19.6
2017-03-04T04:12:31.736Z,19.4
2017-03-04T04:13:42.777Z,19.4
2017-03-04T04:14:53.513Z,19.4
2017-03-04T04:16:04.263Z,19.4
2017-03-04T04:17:15.012Z,19.4
2017-03-04T04:18:24.979Z,19.31
2017-03-04T04:19:35.962Z,19.31
2017-03-04T04:20:46.706Z,19.21
2017-03-04T04:21:57.564Z,19.4
2017-03-04T04:23:07.945Z,19.5
2017-03-04T04:24:18.813Z,19.31
2017-03-04T04:25:29.808Z,19.4
2017-03-04T04:26:40.550Z,19.5
2017-03-04T04:27:51.292Z,19.31
2017-03-04T04:29:01.639Z,19.31
2017-03-04T04:30:11.974Z,19.31
2017-03-04T04:31:22.633Z,19.5
2017-03-04T04:32:32.986Z,19.4
2017-03-04T04:33:42.947Z,19.4
2017-03-04T04:34:52.931Z,19.4
2017-03-04T04:36:02.913Z,19.21
2017-03-04T04:37:13.523Z,19.5
2017-03-04T04:38:23.881Z,19.4
2017-03-04T04:39:34.643Z,19.21
2017-03-04T04:40:45.399Z,19.4
2017-03-04T04:41:56.127Z,19.79
2017-03-04T04:43:06.343Z,19.79
2017-03-04T04:44:17.082Z,19.4
2017-03-04T04:45:27.042Z,19.31
2017-03-04T04:46:37.801Z,19.5
2017-03-04T04:47:48.172Z,19.6
2017-03-04T04:48:58.403Z,19.6
2017-03-04T04:50:09.164Z,19.6
2017-03-04T04:51:19.919Z,19.6
2017-03-04T04:52:30.662Z,19.7
2017-03-04T04:53:41.399Z,19.79
2017-03-04T04:54:51.980Z,19.7
2017-03-04T04:56:01.929Z,19.4
2017-03-04T04:57:12.271Z,19.4
2017-03-04T04:58:22.624Z,19.6
2017-03-04T04:59:32.965Z,19.7
2017-03-04T05:00:43.958Z,19.4
2017-03-04T05:01:54.712Z,19.4
2017-03-04T05:03:05.449Z,19.31
2017-03-04T05:04:14.991Z,19.21
2017-03-04T05:05:25.353Z,19.6
2017-03-04T05:06:35.954Z,19.31
2017-03-04T05:07:45.891Z,19.6
2017-03-04T05:08:56.248Z,19.4
2017-03-04T05:10:07.013Z,18.93
2017-03-04T05:11:17.356Z,19.31
2017-03-04T05:12:27.960Z,19.12
2017-03-04T05:13:38.319Z,18.83
2017-03-04T05:14:49.071Z,18.83
2017-03-04T05:15:59.813Z,18.83
2017-03-04T05:17:09.756Z,18.83
2017-03-04T05:18:20.396Z,18.93
2017-03-04T05:19:31.157Z,18.93
2017-03-04T05:20:41.126Z,18.63
2017-03-04T05:21:51.068Z,18.93
2017-03-04T05:23:01.431Z,18.35
2017-03-04T05:24:12.425Z,18.35
2017-03-04T05:25:22.770Z,18.63
2017-03-04T05:26:32.334Z,18.44
2017-03-04T05:27:42.277Z,18.44
2017-03-04T05:28:52.639Z,18.54
2017-03-04T05:30:02.853Z,18.54
2017-03-04T05:31:12.809Z,18.54
2017-03-04T05:32:23.183Z,18.63
2017-03-04T05:33:33.138Z,18.44
2017-03-04T05:34:43.494Z,18.54
2017-03-04T05:35:54.117Z,18.54
2017-03-04T05:37:04.476Z,18.26
2017-03-04T05:38:14.825Z,18.26
2017-03-04T05:39:25.179Z,18.26
2017-03-04T05:40:35.946Z,18.26
2017-03-04T05:41:46.556Z,18.35
2017-03-04T05:42:57.442Z,18.44
2017-03-04T05:44:07.800Z,18.35
2017-03-04T05:45:18.141Z,17.96
2017-03-04T05:46:28.902Z,18.06
2017-03-04T05:47:39.516Z,17.96
2017-03-04T05:48:49.465Z,17.87
2017-03-04T05:49:59.830Z,17.77
2017-03-04T05:51:10.610Z,17.87
2017-03-04T05:52:20.959Z,17.96
2017-03-04T05:53:31.214Z,17.87
2017-03-04T05:54:41.593Z,17.77
2017-03-04T05:55:51.957Z,17.96
2017-03-04T05:57:02.345Z,18.06
2017-03-04T05:58:11.899Z,18.16
2017-03-04T05:59:22.943Z,18.06
2017-03-04T06:00:33.283Z,18.06
2017-03-04T06:01:43.653Z,17.87
2017-03-04T06:02:54.000Z,17.87
2017-03-04T06:04:04.389Z,17.77
2017-03-04T06:05:15.647Z,17.68
2017-03-04T06:06:26.408Z,17.77
2017-03-04T06:07:36.761Z,17.68
2017-03-04T06:08:47.523Z,17.68
2017-03-04T06:09:57.884Z,17.68
2017-03-04T06:11:08.538Z,17.77
2017-03-04T06:12:19.289Z,17.77
2017-03-04T06:13:30.028Z,17.77
2017-03-04T06:14:40.773Z,17.77
2017-03-04T06:15:51.532Z,17.96
2017-03-04T06:17:02.141Z,17.87
2017-03-04T06:18:12.914Z,17.58
2017-03-04T06:19:22.882Z,17.49
2017-03-04T06:20:33.241Z,17.49
2017-03-04T06:21:43.597Z,17.49
2017-03-04T06:22:54.597Z,17.49
2017-03-04T06:24:04.953Z,17.68
2017-03-04T06:25:15.745Z,17.49
2017-03-04T06:26:25.336Z,17.58
2017-03-04T06:27:35.315Z,17.68
2017-03-04T06:28:46.336Z,17.68
2017-03-04T06:29:57.100Z,17.77
2017-03-04T06:31:07.523Z,17.77
2017-03-04T06:32:18.310Z,17.87
2017-03-04T06:33:28.646Z,17.77
2017-03-04T06:34:39.075Z,17.77
2017-03-04T06:35:49.420Z,17.39
2017-03-04T06:36:58.975Z,17.77
2017-03-04T06:38:09.756Z,17.87
2017-03-04T06:39:20.508Z,17.77
2017-03-04T06:40:31.161Z,17.58
2017-03-04T06:41:41.531Z,17.68
2017-03-04T06:42:51.493Z,17.29
2017-03-04T06:44:01.068Z,17.68
2017-03-04T06:45:11.420Z,17.68
2017-03-04T06:46:21.698Z,17.87
2017-03-04T06:47:32.063Z,17.77
2017-03-04T06:48:42.431Z,17.77
2017-03-04T06:49:52.793Z,17.68
2017-03-04T06:51:03.533Z,17.77
2017-03-04T06:52:14.531Z,17.68
2017-03-04T06:53:25.295Z,17.77
2017-03-04T06:54:35.677Z,17.77
2017-03-04T06:55:46.031Z,17.77
2017-03-04T06:56:56.767Z,17.68
2017-03-04T06:58:07.769Z,17.77
2017-03-04T06:59:18.524Z,17.68
2017-03-04T07:00:28.476Z,17.49
2017-03-04T07:01:39.253Z,17.68
2017-03-04T07:02:49.613Z,17.77
2017-03-04T07:04:00.647Z,17.77
2017-03-04T07:05:10.601Z,17.68
2017-03-04T07:06:21.340Z,17.77
2017-03-04T07:07:31.706Z,17.77
2017-03-04T07:08:41.673Z,17.77
2017-03-04T07:09:52.693Z,17.77
2017-03-04T07:11:02.313Z,17.87
2017-03-04T07:12:12.725Z,17.58
2017-03-04T07:13:23.065Z,17.49
2017-03-04T07:14:33.033Z,17.68
2017-03-04T07:15:44.108Z,17.58
2017-03-04T07:16:54.457Z,17.87
2017-03-04T07:18:05.205Z,17.58
2017-03-04T07:19:15.971Z,17.58
2017-03-04T07:20:26.338Z,17.58
2017-03-04T07:21:36.985Z,17.68
2017-03-04T07:22:47.747Z,17.58
2017-03-04T07:23:58.095Z,17.68
2017-03-04T07:25:08.454Z,17.58
2017-03-04T07:26:18.825Z,17.87
2017-03-04T07:27:30.076Z,17.87
2017-03-04T07:28:40.429Z,17.68
2017-03-04T07:29:51.183Z,17.58
2017-03-04T07:31:01.526Z,17.58
2017-03-04T07:32:11.907Z,17.77
2017-03-04T07:33:22.505Z,17.58
2017-03-04T07:34:32.873Z,17.58
2017-03-04T07:35:43.228Z,17.58
2017-03-04T07:36:53.577Z,17.58
2017-03-04T07:38:03.536Z,17.49
2017-03-04T07:39:14.563Z,17.58
2017-03-04T07:40:25.324Z,17.68
2017-03-04T07:41:35.308Z,17.49
2017-03-04T07:42:45.689Z,17.49
2017-03-04T07:43:56.073Z,17.58
2017-03-04T07:45:07.075Z,17.68
2017-03-04T07:46:17.036Z,17.77
2017-03-04T07:47:27.422Z,17.68
2017-03-04T07:48:38.173Z,17.58
2017-03-04T07:49:48.121Z,17.49
2017-03-04T07:50:58.806Z,17.68
2017-03-04T07:52:09.564Z,17.58
2017-03-04T07:53:19.545Z,17.96
2017-03-04T07:54:29.957Z,17.68
2017-03-04T07:55:40.335Z,17.68
2017-03-04T07:56:50.939Z,17.68
2017-03-04T07:58:01.685Z,17.58
2017-03-04T07:59:11.676Z,17.68
2017-03-04T08:00:21.679Z,17.77
2017-03-04T08:01:32.450Z,17.68
2017-03-04T08:02:43.445Z,17.96
2017-03-04T08:03:53.420Z,17.68
2017-03-04T08:05:04.188Z,17.68
2017-03-04T08:06:14.956Z,17.96
2017-03-04T08:07:25.320Z,17.77
2017-03-04T08:08:36.397Z,17.96
2017-03-04T08:09:47.167Z,17.68
2017-03-04T08:10:57.909Z,17.96
2017-03-04T08:12:08.668Z,17.96
2017-03-04T08:13:19.410Z,17.68
2017-03-04T08:14:30.425Z,17.58
2017-03-04T08:15:40.773Z,17.96
2017-03-04T08:16:51.530Z,17.68
2017-03-04T08:18:02.275Z,17.96
2017-03-04T08:19:13.051Z,17.68
2017-03-04T08:20:24.101Z,17.77
2017-03-04T08:21:34.841Z,17.87
2017-03-04T08:22:45.584Z,17.77
2017-03-04T08:23:55.154Z,17.77
2017-03-04T08:25:05.522Z,17.77
2017-03-04T08:26:16.140Z,17.68
2017-03-04T08:27:26.885Z,17.68
2017-03-04T08:28:36.837Z,17.77
2017-03-04T08:29:47.580Z,17.77
2017-03-04T08:30:57.551Z,17.68
2017-03-04T08:32:08.159Z,17.87
2017-03-04T08:33:18.927Z,17.68
2017-03-04T08:34:29.702Z,17.96
2017-03-04T08:35:40.076Z,17.87
2017-03-04T08:36:50.876Z,17.96
2017-03-04T08:38:01.160Z,17.58
2017-03-04T08:39:11.161Z,17.87
2017-03-04T08:40:21.947Z,18.06
2017-03-04T08:41:32.695Z,18.06
2017-03-04T08:42:42.751Z,18.06
2017-03-04T08:43:53.362Z,18.06
2017-03-04T08:45:03.961Z,18.06
2017-03-04T08:46:14.771Z,18.06
2017-03-04T08:47:25.519Z,18.06
2017-03-04T08:48:36.290Z,17.96
2017-03-04T08:49:46.889Z,17.96
2017-03-04T08:50:57.237Z,17.96
2017-03-04T08:52:08.005Z,17.97
2017-03-04T08:53:17.961Z,18.06
2017-03-04T08:54:28.726Z,17.77
2017-03-04T08:55:39.775Z,17.87
2017-03-04T08:56:50.127Z,17.96
2017-03-04T08:58:00.105Z,17.96
2017-03-04T08:59:10.093Z,17.88
2017-03-04T09:00:20.470Z,17.96
2017-03-04T09:01:31.471Z,17.96
2017-03-04T09:02:41.433Z,17.96
2017-03-04T09:03:51.418Z,18.16
2017-03-04T09:05:02.220Z,17.97
2017-03-04T09:06:12.678Z,17.97
2017-03-04T09:07:23.727Z,18.07
2017-03-04T09:08:34.489Z,18.26
2017-03-04T09:09:43.666Z,18.46
2017-03-04T09:10:54.425Z,18.35
2017-03-04T09:12:04.767Z,18.36
2017-03-04T09:13:15.936Z,18.36
2017-03-04T09:14:25.894Z,18.36
2017-03-04T09:15:36.258Z,18.46
2017-03-04T09:16:47.007Z,18.44
2017-03-04T09:17:57.781Z,18.26
2017-03-04T09:19:08.374Z,18.36
2017-03-04T09:20:18.003Z,18.26
2017-03-04T09:21:28.757Z,18.36
2017-03-04T09:22:39.116Z,18.26
2017-03-04T09:23:49.910Z,18.46
2017-03-04T09:25:00.179Z,18.35
2017-03-04T09:26:10.560Z,18.36
2017-03-04T09:27:20.928Z,18.26
2017-03-04T09:28:31.686Z,18.36
2017-03-04T09:29:42.025Z,18.26
2017-03-04T09:30:52.613Z,18.55
2017-03-04T09:32:02.601Z,18.46
2017-03-04T09:33:12.956Z,18.44
2017-03-04T09:34:23.309Z,18.54
2017-03-04T09:35:34.067Z,18.55
2017-03-04T09:36:44.348Z,18.46
2017-03-04T09:37:54.710Z,18.46
2017-03-04T09:39:05.097Z,18.44
2017-03-04T09:40:15.470Z,18.54
2017-03-04T09:41:26.238Z,18.65
2017-03-04T09:42:36.893Z,18.55
2017-03-04T09:43:47.644Z,18.46
2017-03-04T09:44:57.596Z,18.55
2017-03-04T09:46:07.977Z,18.54
2017-03-04T09:47:18.744Z,18.54
2017-03-04T09:48:29.391Z,18.46
2017-03-04T09:49:40.179Z,18.55
2017-03-04T09:50:50.519Z,18.46
2017-03-04T09:52:00.864Z,18.55
2017-03-04T09:53:11.610Z,18.46
2017-03-04T09:54:21.849Z,18.55
2017-03-04T09:55:31.824Z,18.55
2017-03-04T09:56:42.565Z,18.55
2017-03-04T09:57:53.337Z,18.55
2017-03-04T09:59:03.328Z,18.46
2017-03-04T10:00:14.041Z,18.46
2017-03-04T10:01:24.800Z,18.55
2017-03-04T10:02:35.564Z,18.46
2017-03-04T10:03:45.944Z,18.55
2017-03-04T10:04:56.713Z,18.46
2017-03-04T10:06:07.355Z,18.46
2017-03-04T10:07:17.356Z,18.46
2017-03-04T10:08:27.743Z,18.65
2017-03-04T10:09:37.309Z,18.36
2017-03-04T10:10:47.686Z,18.36
2017-03-04T10:11:58.744Z,18.46
2017-03-04T10:13:09.081Z,18.55
2017-03-04T10:14:19.442Z,18.93
2017-03-04T10:15:29.421Z,18.74
2017-03-04T10:16:39.005Z,18.74
2017-03-04T10:17:49.637Z,18.74
2017-03-04T10:19:00.003Z,18.93
2017-03-04T10:20:10.405Z,18.84
2017-03-04T10:21:21.202Z,18.84
2017-03-04T10:22:31.587Z,18.93
2017-03-04T10:23:42.237Z,18.84
2017-03-04T10:24:53.025Z,18.84
2017-03-04T10:26:03.511Z,18.84
2017-03-04T10:27:13.859Z,18.93
2017-03-04T10:28:23.444Z,18.74
2017-03-04T10:29:34.096Z,18.84
2017-03-04T10:30:44.860Z,18.84
2017-03-04T10:31:54.835Z,18.84
2017-03-04T10:33:05.590Z,19.13
2017-03-04T10:34:16.368Z,18.93
2017-03-04T10:35:26.971Z,19.03
2017-03-04T10:36:37.333Z,19.23
2017-03-04T10:37:47.705Z,19.13
2017-03-04T10:38:58.483Z,19.23
2017-03-04T10:40:08.438Z,19.13
2017-03-04T10:41:19.446Z,19.13
2017-03-04T10:42:29.811Z,18.93
2017-03-04T10:43:40.585Z,19.13
2017-03-04T10:44:50.944Z,19.13
2017-03-04T10:46:01.696Z,19.13
2017-03-04T10:47:12.779Z,19.23
2017-03-04T10:48:22.733Z,19.23
2017-03-04T10:49:32.301Z,19.13
2017-03-04T10:50:43.079Z,19.13
2017-03-04T10:51:53.452Z,19.13
2017-03-04T10:53:04.474Z,19.32
2017-03-04T10:54:15.253Z,19.32
2017-03-04T10:55:25.644Z,19.32
2017-03-04T10:56:36.410Z,19.13
2017-03-04T10:57:45.609Z,19.23
2017-03-04T10:58:55.825Z,19.13
2017-03-04T11:00:06.595Z,19.13
2017-03-04T11:01:16.583Z,19.32
2017-03-04T11:02:27.357Z,19.23
2017-03-04T11:03:37.328Z,19.32
2017-03-04T11:04:48.391Z,19.32
2017-03-04T11:05:58.744Z,19.13
2017-03-04T11:07:08.705Z,19.03
2017-03-04T11:08:19.086Z,19.32
2017-03-04T11:09:29.842Z,19.32
2017-03-04T11:10:40.473Z,19.23
2017-03-04T11:11:51.224Z,19.61
2017-03-04T11:13:01.196Z,19.51
2017-03-04T11:14:11.975Z,19.42
2017-03-04T11:15:22.311Z,19.32
2017-03-04T11:16:32.977Z,19.42
2017-03-04T11:17:43.713Z,19.61
2017-03-04T11:18:53.676Z,19.42
2017-03-04T11:20:04.043Z,19.23
2017-03-04T11:21:14.650Z,19.7
2017-03-04T11:22:24.867Z,19.23
2017-03-04T11:23:34.822Z,19.61
2017-03-04T11:24:45.590Z,19.61
2017-03-04T11:25:55.978Z,19.51
2017-03-04T11:27:06.748Z,19.61
2017-03-04T11:28:17.817Z,19.61
2017-03-04T11:29:27.779Z,19.51
2017-03-04T11:30:38.636Z,19.61
2017-03-04T11:31:49.005Z,19.51
2017-03-04T11:32:59.756Z,19.8
2017-03-04T11:34:09.956Z,19.43
2017-03-04T11:35:20.701Z,19.7
2017-03-04T11:36:31.465Z,19.32
2017-03-04T11:37:41.820Z,19.51
2017-03-04T11:38:52.223Z,19.62
2017-03-04T11:40:02.863Z,19.61
2017-03-04T11:41:13.228Z,19.51
2017-03-04T11:42:24.009Z,19.71
2017-03-04T11:43:34.370Z,19.43
2017-03-04T11:44:45.126Z,19.52
2017-03-04T11:45:55.390Z,19.52
2017-03-04T11:47:06.157Z,19.71
2017-03-04T11:48:16.508Z,19.43
2017-03-04T11:49:27.286Z,19.23
2017-03-04T11:50:38.058Z,19.81
2017-03-04T11:51:48.690Z,19.33
2017-03-04T11:52:58.658Z,19.42
2017-03-04T11:54:09.030Z,19.61
2017-03-04T11:55:19.388Z,19.8
2017-03-04T11:56:30.159Z,19.62
2017-03-04T11:57:40.795Z,19.33
2017-03-04T11:58:51.161Z,19.43
2017-03-04T12:00:01.924Z,19.33
2017-03-04T12:01:12.690Z,19.62
2017-03-04T12:02:22.646Z,19.52
2017-03-04T12:03:33.269Z,19.43
2017-03-04T12:04:43.651Z,19.43
2017-03-04T12:05:54.418Z,19.61
2017-03-04T12:07:04.770Z,19.52
2017-03-04T12:08:15.186Z,19.61
2017-03-04T12:09:25.851Z,19.81
2017-03-04T12:10:36.223Z,19.33
2017-03-04T12:11:46.626Z,19.43
2017-03-04T12:12:56.581Z,19.23
2017-03-04T12:14:07.343Z,19.23
2017-03-04T12:15:18.405Z,19.33
2017-03-04T12:16:29.180Z,19.43
2017-03-04T12:17:39.915Z,19.43
2017-03-04T12:18:50.289Z,19.43
2017-03-04T12:20:00.646Z,19.43
2017-03-04T12:21:11.266Z,19.43
2017-03-04T12:22:22.060Z,19.33
2017-03-04T12:23:32.827Z,19.23
2017-03-04T12:24:43.173Z,19.23
2017-03-04T12:25:53.944Z,19.23
2017-03-04T12:27:04.949Z,19.52
2017-03-04T12:28:15.345Z,19.52
2017-03-04T12:29:25.695Z,19.23
2017-03-04T12:30:36.059Z,19.13
2017-03-04T12:31:46.069Z,19.13
2017-03-04T12:32:56.709Z,19.04
2017-03-04T12:34:06.722Z,19.33
2017-03-04T12:35:16.693Z,19.33
2017-03-04T12:36:27.083Z,19.33
2017-03-04T12:37:37.054Z,19.13
2017-03-04T12:38:48.145Z,19.43
2017-03-04T12:39:58.504Z,19.13
2017-03-04T12:41:08.888Z,19.43
2017-03-04T12:42:19.240Z,19.04
2017-03-04T12:43:30.014Z,19.04
2017-03-04T12:44:41.031Z,19.13
2017-03-04T12:45:51.832Z,19.23
2017-03-04T12:47:02.572Z,19.23
2017-03-04T12:48:12.952Z,19.23
2017-03-04T12:49:23.707Z,19.43
2017-03-04T12:50:34.287Z,19.13
2017-03-04T12:51:45.045Z,19.43
2017-03-04T12:52:55.423Z,19.23
2017-03-04T12:54:06.194Z,19.33
2017-03-04T12:55:16.975Z,19.33
2017-03-04T12:56:28.049Z,19.33
2017-03-04T12:57:38.809Z,19.04
2017-03-04T12:58:49.166Z,19.23
2017-03-04T12:59:59.531Z,19.33
2017-03-04T13:01:10.315Z,19.43
2017-03-04T13:02:21.330Z,19.23
2017-03-04T13:03:31.665Z,19.43
2017-03-04T13:04:41.656Z,19.62
2017-03-04T13:05:51.742Z,19.62
2017-03-04T13:07:01.711Z,19.52
2017-03-04T13:08:12.370Z,19.62
2017-03-04T13:09:23.145Z,19.43
2017-03-04T13:10:33.912Z,19.81
2017-03-04T13:11:44.668Z,19.43
2017-03-04T13:12:55.438Z,19.71
2017-03-04T13:14:06.075Z,19.52
2017-03-04T13:15:16.457Z,19.43
2017-03-04T13:16:26.827Z,19.23
2017-03-04T13:17:37.218Z,19.52
2017-03-04T13:18:47.583Z,18.95
2017-03-04T13:19:58.187Z,19.33
2017-03-04T13:21:08.544Z,19.43
2017-03-04T13:22:19.304Z,19.33
2017-03-04T13:23:30.054Z,18.95
2017-03-04T13:24:40.469Z,19.13
2017-03-04T13:25:51.099Z,19.23
2017-03-04T13:27:01.841Z,19.43
2017-03-04T13:28:12.594Z,19.43
2017-03-04T13:29:23.051Z,19.33
2017-03-04T13:30:33.438Z,19.04
2017-03-04T13:31:44.100Z,19.04
2017-03-04T13:32:54.888Z,19.43
2017-03-04T13:34:05.655Z,19.13
2017-03-04T13:35:15.679Z,19.13
2017-03-04T13:36:26.037Z,19.13
2017-03-04T13:37:37.087Z,19.23
2017-03-04T13:38:47.835Z,19.33
2017-03-04T13:39:57.406Z,19.13
2017-03-04T13:41:08.201Z,19.23
2017-03-04T13:42:18.168Z,19.43
2017-03-04T13:43:29.221Z,19.13
2017-03-04T13:44:39.587Z,19.33
2017-03-04T13:45:49.944Z,19.62
2017-03-04T13:47:00.311Z,19.62
2017-03-04T13:48:10.661Z,19.43
2017-03-04T13:49:21.281Z,19.71
2017-03-04T13:50:32.037Z,19.71
2017-03-04T13:51:42.030Z,19.81
2017-03-04T13:52:52.399Z,19.71
2017-03-04T13:54:02.792Z,19.71
2017-03-04T13:55:13.438Z,19.71
2017-03-04T13:56:23.798Z,19.81
2017-03-04T13:57:34.559Z,19.71
2017-03-04T13:58:44.907Z,19.71
2017-03-04T13:59:55.278Z,19.71
2017-03-04T14:01:05.109Z,19.71
2017-03-04T14:02:15.052Z,19.71
2017-03-04T14:03:25.033Z,19.71
2017-03-04T14:04:35.387Z,19.9
2017-03-04T14:05:45.371Z,19.71
2017-03-04T14:06:55.838Z,19.9
2017-03-04T14:08:06.190Z,19.71
2017-03-04T14:09:16.985Z,19.62
2017-03-04T14:10:27.720Z,19.63
2017-03-04T14:11:37.309Z,19.71
2017-03-04T14:12:47.953Z,19.82
2017-03-04T14:13:58.318Z,19.71
2017-03-04T14:15:09.077Z,19.71
2017-03-04T14:16:19.848Z,19.92
2017-03-04T14:17:30.195Z,19.9
2017-03-04T14:18:41.269Z,19.71
2017-03-04T14:19:51.630Z,19.9
2017-03-04T14:21:02.378Z,19.62
2017-03-04T14:22:12.389Z,19.62
2017-03-04T14:23:23.143Z,19.63
2017-03-04T14:24:33.810Z,19.81
2017-03-04T14:25:44.552Z,19.9
2017-03-04T14:26:54.501Z,19.81
2017-03-04T14:28:04.854Z,19.62
2017-03-04T14:29:14.424Z,19.62
2017-03-04T14:30:25.429Z,19.71
2017-03-04T14:31:35.790Z,19.71
2017-03-04T14:32:45.752Z,19.71
2017-03-04T14:33:55.307Z,19.81
2017-03-04T14:35:05.685Z,19.71
2017-03-04T14:36:15.499Z,19.72
2017-03-04T14:37:25.892Z,19.9
2017-03-04T14:38:36.691Z,19.9
2017-03-04T14:39:46.652Z,19.71
2017-03-04T14:40:56.229Z,19.71
2017-03-04T14:42:06.460Z,19.71
2017-03-04T14:43:17.209Z,19.62
2017-03-04T14:44:27.558Z,19.62
2017-03-04T14:45:37.922Z,19.52
2017-03-04T14:46:48.296Z,19.62
2017-03-04T14:47:58.558Z,19.62
2017-03-04T14:49:08.930Z,19.81
2017-03-04T14:50:19.726Z,19.52
2017-03-04T14:51:29.717Z,19.52
2017-03-04T14:52:39.669Z,19.43
2017-03-04T14:53:49.871Z,19.9
2017-03-04T14:55:00.252Z,19.81
2017-03-04T14:56:11.004Z,19.63
2017-03-04T14:57:21.348Z,19.81
2017-03-04T14:58:31.304Z,19.9
2017-03-04T14:59:42.452Z,19.82
2017-03-04T15:00:52.820Z,19.82
2017-03-04T15:02:03.174Z,19.9
2017-03-04T15:03:13.139Z,19.9
2017-03-04T15:04:23.878Z,20.01
2017-03-04T15:05:34.920Z,19.82
2017-03-04T15:06:45.255Z,19.62
2017-03-04T15:07:56.007Z,20
2017-03-04T15:09:06.732Z,20
2017-03-04T15:10:16.703Z,19.81
2017-03-04T15:11:26.897Z,19.82